ADDS METAR Data INFO
IDs: Format: Raw Decoded Include TAF

Data at: 0836 UTC 21 Oct 2017

METAR for:KFLL (Ft Lauderdale-Hollyw, FL, US)
Text:KFLL 210753Z 06016G21KT 10SM SCT022 BKN035 OVC044 26/25 A2998 RMK AO2 RAB0658E48 SLP151 P0011 T02610250
Temperature: 26.1°C ( 79°F)
Dewpoint: 25.0°C ( 77°F) [RH = 94%]
Pressure (altimeter):29.98 inches Hg (1015.3 mb) [Sea level pressure: 1015.1 mb]
Winds:from the ENE (60 degrees) at 18 MPH (16 knots; 8.2 m/s) gusting to 24 MPH (21 knots; 10.8 m/s)
Visibility:10 or more sm (16+ km)
Ceiling:3500 feet AGL
Clouds: scattered clouds at 2200 feet AGL, broken clouds at 3500 feet AGL, overcast cloud deck at 4400 feet AGL